sensor_id;sensor_type;location;lat;lon;timestamp;temperature;humidity
41481;DHT22;27217;51.220;5.308;2023-02-20T00:01:01;6.20;99.90
41481;DHT22;27217;51.220;5.308;2023-02-20T00:03:26;6.20;99.90
41481;DHT22;27217;51.220;5.308;2023-02-20T00:05:52;5.50;99.90
41481;DHT22;27217;51.220;5.308;2023-02-20T00:08:18;5.40;99.90
41481;DHT22;27217;51.220;5.308;2023-02-20T00:10:44;5.30;99.90
41481;DHT22;27217;51.220;5.308;2023-02-20T00:13:09;5.00;99.90
41481;DHT22;27217;51.220;5.308;2023-02-20T00:15:36;5.20;99.90
41481;DHT22;27217;51.220;5.308;2023-02-20T00:18:01;5.20;99.90
41481;DHT22;27217;51.220;5.308;2023-02-20T00:20:27;5.20;99.90
41481;DHT22;27217;51.220;5.308;2023-02-20T00:22:54;5.40;99.90
41481;DHT22;27217;51.220;5.308;2023-02-20T00:25:21;5.60;99.90
41481;DHT22;27217;51.220;5.308;2023-02-20T00:27:47;5.50;99.90
41481;DHT22;27217;51.220;5.308;2023-02-20T00:30:22;5.50;99.90
41481;DHT22;27217;51.220;5.308;2023-02-20T00:32:50;5.50;99.90
41481;DHT22;27217;51.220;5.308;2023-02-20T00:35:17;5.40;99.90
41481;DHT22;27217;51.220;5.308;2023-02-20T00:37:45;5.30;99.90
41481;DHT22;27217;51.220;5.308;2023-02-20T00:40:11;5.30;99.90
41481;DHT22;27217;51.220;5.308;2023-02-20T00:42:37;5.50;99.90
41481;DHT22;27217;51.220;5.308;2023-02-20T00:45:04;5.90;99.90
41481;DHT22;27217;51.220;5.308;2023-02-20T00:47:31;5.70;99.90
41481;DHT22;27217;51.220;5.308;2023-02-20T00:49:56;5.70;99.90
41481;DHT22;27217;51.220;5.308;2023-02-20T00:52:23;5.60;99.90
41481;DHT22;27217;51.220;5.308;2023-02-20T00:54:48;5.50;99.90
41481;DHT22;27217;51.220;5.308;2023-02-20T00:57:15;5.80;99.90
41481;DHT22;27217;51.220;5.308;2023-02-20T00:59:41;5.70;99.90
41481;DHT22;27217;51.220;5.308;2023-02-20T01:02:07;5.90;99.90
41481;DHT22;27217;51.220;5.308;2023-02-20T01:04:33;5.60;99.90
41481;DHT22;27217;51.220;5.308;2023-02-20T01:07:00;5.60;99.90
41481;DHT22;27217;51.220;5.308;2023-02-20T01:09:27;5.70;99.90
41481;DHT22;27217;51.220;5.308;2023-02-20T01:11:53;5.60;99.90
41481;DHT22;27217;51.220;5.308;2023-02-20T01:14:20;5.70;99.90
41481;DHT22;27217;51.220;5.308;2023-02-20T01:16:49;5.80;99.90
41481;DHT22;27217;51.220;5.308;2023-02-20T01:19:20;5.80;99.90
41481;DHT22;27217;51.220;5.308;2023-02-20T01:21:46;5.60;99.90
41481;DHT22;27217;51.220;5.308;2023-02-20T01:24:16;5.80;99.90
41481;DHT22;27217;51.220;5.308;2023-02-20T01:26:44;6.20;99.90
41481;DHT22;27217;51.220;5.308;2023-02-20T01:29:11;5.50;99.90
41481;DHT22;27217;51.220;5.308;2023-02-20T01:31:37;5.70;99.90
41481;DHT22;27217;51.220;5.308;2023-02-20T01:34:03;5.40;99.90
41481;DHT22;27217;51.220;5.308;2023-02-20T01:36:32;5.50;99.90
41481;DHT22;27217;51.220;5.308;2023-02-20T01:38:59;5.60;99.90
41481;DHT22;27217;51.220;5.308;2023-02-20T01:41:24;5.40;99.90
41481;DHT22;27217;51.220;5.308;2023-02-20T01:43:50;5.60;99.90
41481;DHT22;27217;51.220;5.308;2023-02-20T01:49:15;6.10;99.90
41481;DHT22;27217;51.220;5.308;2023-02-20T01:51:46;6.10;99.90
41481;DHT22;27217;51.220;5.308;2023-02-20T01:54:15;5.70;99.90
41481;DHT22;27217;51.220;5.308;2023-02-20T01:56:42;5.80;99.90
41481;DHT22;27217;51.220;5.308;2023-02-20T01:59:11;6.00;99.90
41481;DHT22;27217;51.220;5.308;2023-02-20T02:01:37;5.50;99.90
41481;DHT22;27217;51.220;5.308;2023-02-20T02:04:06;5.50;99.90
41481;DHT22;27217;51.220;5.308;2023-02-20T02:06:34;5.50;99.90
41481;DHT22;27217;51.220;5.308;2023-02-20T02:09:11;5.50;99.90
41481;DHT22;27217;51.220;5.308;2023-02-20T02:11:40;5.70;99.90
41481;DHT22;27217;51.220;5.308;2023-02-20T02:14:06;5.50;99.90
41481;DHT22;27217;51.220;5.308;2023-02-20T02:16:57;5.60;99.90
41481;DHT22;27217;51.220;5.308;2023-02-20T02:22:34;5.40;99.90
41481;DHT22;27217;51.220;5.308;2023-02-20T02:39:12;5.40;99.90
41481;DHT22;27217;51.220;5.308;2023-02-20T02:48:25;5.40;99.90
41481;DHT22;27217;51.220;5.308;2023-02-20T02:50:35;5.50;99.90
41481;DHT22;27217;51.220;5.308;2023-02-20T02:53:04;5.60;99.90
41481;DHT22;27217;51.220;5.308;2023-02-20T02:55:31;5.90;99.90
41481;DHT22;27217;51.220;5.308;2023-02-20T02:58:03;5.70;99.90
41481;DHT22;27217;51.220;5.308;2023-02-20T03:00:52;5.70;99.90
41481;DHT22;27217;51.220;5.308;2023-02-20T03:03:33;5.80;99.90
41481;DHT22;27217;51.220;5.308;2023-02-20T03:06:14;5.90;99.90
41481;DHT22;27217;51.220;5.308;2023-02-20T03:08:55;5.70;99.90
41481;DHT22;27217;51.220;5.308;2023-02-20T03:11:26;5.80;99.90
41481;DHT22;27217;51.220;5.308;2023-02-20T03:14:03;5.90;99.90
41481;DHT22;27217;51.220;5.308;2023-02-20T03:19:46;5.80;99.90
41481;DHT22;27217;51.220;5.308;2023-02-20T03:24:49;5.90;99.90
41481;DHT22;27217;51.220;5.308;2023-02-20T03:27:37;6.00;99.90
41481;DHT22;27217;51.220;5.308;2023-02-20T03:30:22;6.00;99.90
41481;DHT22;27217;51.220;5.308;2023-02-20T03:32:54;6.10;99.90
41481;DHT22;27217;51.220;5.308;2023-02-20T03:35:43;6.00;99.90
41481;DHT22;27217;51.220;5.308;2023-02-20T03:38:28;5.90;99.90
41481;DHT22;27217;51.220;5.308;2023-02-20T03:41:15;5.70;99.90
41481;DHT22;27217;51.220;5.308;2023-02-20T03:44:03;5.70;99.90
41481;DHT22;27217;51.220;5.308;2023-02-20T03:46:32;5.90;99.90
41481;DHT22;27217;51.220;5.308;2023-02-20T03:49:05;5.80;99.90
41481;DHT22;27217;51.220;5.308;2023-02-20T03:51:32;5.80;99.90
41481;DHT22;27217;51.220;5.308;2023-02-20T03:54:17;5.90;99.90
41481;DHT22;27217;51.220;5.308;2023-02-20T03:56:46;6.00;99.90
41481;DHT22;27217;51.220;5.308;2023-02-20T03:59:37;6.00;99.90
41481;DHT22;27217;51.220;5.308;2023-02-20T04:02:10;5.70;99.90
41481;DHT22;27217;51.220;5.308;2023-02-20T04:04:47;5.90;99.90
41481;DHT22;27217;51.220;5.308;2023-02-20T04:07:42;6.00;99.90
41481;DHT22;27217;51.220;5.308;2023-02-20T04:10:14;5.90;99.90
41481;DHT22;27217;51.220;5.308;2023-02-20T04:12:43;6.00;99.90
41481;DHT22;27217;51.220;5.308;2023-02-20T04:15:11;6.10;99.90
41481;DHT22;27217;51.220;5.308;2023-02-20T04:18:04;6.10;99.90
41481;DHT22;27217;51.220;5.308;2023-02-20T04:20:31;5.90;99.90
41481;DHT22;27217;51.220;5.308;2023-02-20T04:23:03;6.10;99.90
41481;DHT22;27217;51.220;5.308;2023-02-20T04:25:57;6.20;99.90
41481;DHT22;27217;51.220;5.308;2023-02-20T04:28:22;6.00;99.90
41481;DHT22;27217;51.220;5.308;2023-02-20T04:30:48;6.30;99.90
41481;DHT22;27217;51.220;5.308;2023-02-20T04:33:15;6.20;99.90
41481;DHT22;27217;51.220;5.308;2023-02-20T04:35:41;6.30;99.90
41481;DHT22;27217;51.220;5.308;2023-02-20T04:38:07;6.20;99.90
41481;DHT22;27217;51.220;5.308;2023-02-20T04:40:34;6.60;99.90
41481;DHT22;27217;51.220;5.308;2023-02-20T04:43:00;6.20;99.90
41481;DHT22;27217;51.220;5.308;2023-02-20T04:45:26;6.30;99.90
41481;DHT22;27217;51.220;5.308;2023-02-20T04:47:52;6.40;99.90
41481;DHT22;27217;51.220;5.308;2023-02-20T04:50:23;6.20;99.90
41481;DHT22;27217;51.220;5.308;2023-02-20T04:52:49;6.30;99.90
41481;DHT22;27217;51.220;5.308;2023-02-20T04:55:16;6.20;99.90
41481;DHT22;27217;51.220;5.308;2023-02-20T04:57:42;6.40;99.90
41481;DHT22;27217;51.220;5.308;2023-02-20T05:00:09;6.40;99.90
41481;DHT22;27217;51.220;5.308;2023-02-20T05:02:39;6.50;99.90
41481;DHT22;27217;51.220;5.308;2023-02-20T05:05:14;6.50;99.90
41481;DHT22;27217;51.220;5.308;2023-02-20T05:07:40;6.60;99.90
41481;DHT22;27217;51.220;5.308;2023-02-20T05:10:06;6.80;99.90
41481;DHT22;27217;51.220;5.308;2023-02-20T05:12:35;6.40;99.90
41481;DHT22;27217;51.220;5.308;2023-02-20T05:15:01;6.30;99.90
41481;DHT22;27217;51.220;5.308;2023-02-20T05:17:27;6.40;99.90
41481;DHT22;27217;51.220;5.308;2023-02-20T05:19:56;6.50;99.90
41481;DHT22;27217;51.220;5.308;2023-02-20T05:22:22;7.00;99.90
41481;DHT22;27217;51.220;5.308;2023-02-20T05:24:50;6.50;99.90
41481;DHT22;27217;51.220;5.308;2023-02-20T05:27:18;6.40;99.90
41481;DHT22;27217;51.220;5.308;2023-02-20T05:29:49;6.40;99.90
41481;DHT22;27217;51.220;5.308;2023-02-20T05:32:17;6.40;99.90
41481;DHT22;27217;51.220;5.308;2023-02-20T05:34:43;6.60;99.90
41481;DHT22;27217;51.220;5.308;2023-02-20T05:37:11;6.60;99.90
41481;DHT22;27217;51.220;5.308;2023-02-20T05:39:37;6.50;99.90
41481;DHT22;27217;51.220;5.308;2023-02-20T05:42:04;6.50;99.90
41481;DHT22;27217;51.220;5.308;2023-02-20T05:44:30;6.60;99.90
41481;DHT22;27217;51.220;5.308;2023-02-20T05:46:57;6.40;99.90
41481;DHT22;27217;51.220;5.308;2023-02-20T05:49:24;6.50;99.90
41481;DHT22;27217;51.220;5.308;2023-02-20T05:51:50;6.70;99.90
41481;DHT22;27217;51.220;5.308;2023-02-20T05:54:18;6.80;99.90
41481;DHT22;27217;51.220;5.308;2023-02-20T05:56:44;6.80;99.90
41481;DHT22;27217;51.220;5.308;2023-02-20T05:59:11;6.90;99.90
41481;DHT22;27217;51.220;5.308;2023-02-20T06:01:37;6.60;99.90
41481;DHT22;27217;51.220;5.308;2023-02-20T06:04:04;6.90;99.90
41481;DHT22;27217;51.220;5.308;2023-02-20T06:06:38;6.60;99.90
41481;DHT22;27217;51.220;5.308;2023-02-20T06:09:05;6.80;99.90
41481;DHT22;27217;51.220;5.308;2023-02-20T06:11:38;6.80;99.90
41481;DHT22;27217;51.220;5.308;2023-02-20T06:14:05;6.80;99.90
41481;DHT22;27217;51.220;5.308;2023-02-20T06:16:33;6.90;99.90
41481;DHT22;27217;51.220;5.308;2023-02-20T06:19:00;7.00;99.90
41481;DHT22;27217;51.220;5.308;2023-02-20T06:21:26;7.00;99.90
41481;DHT22;27217;51.220;5.308;2023-02-20T06:23:53;7.00;99.90
41481;DHT22;27217;51.220;5.308;2023-02-20T06:26:20;7.10;99.90
41481;DHT22;27217;51.220;5.308;2023-02-20T06:28:47;6.90;99.90
41481;DHT22;27217;51.220;5.308;2023-02-20T06:31:24;7.20;99.90
41481;DHT22;27217;51.220;5.308;2023-02-20T06:33:51;7.10;99.90
41481;DHT22;27217;51.220;5.308;2023-02-20T06:36:21;7.20;99.90
41481;DHT22;27217;51.220;5.308;2023-02-20T06:38:47;7.20;99.90
41481;DHT22;27217;51.220;5.308;2023-02-20T06:41:13;7.10;99.90
41481;DHT22;27217;51.220;5.308;2023-02-20T06:43:39;7.20;99.90
41481;DHT22;27217;51.220;5.308;2023-02-20T06:46:05;7.20;99.90
41481;DHT22;27217;51.220;5.308;2023-02-20T06:48:31;7.30;99.90
41481;DHT22;27217;51.220;5.308;2023-02-20T06:50:57;7.30;99.90
41481;DHT22;27217;51.220;5.308;2023-02-20T06:53:22;7.30;99.90
41481;DHT22;27217;51.220;5.308;2023-02-20T06:55:48;7.30;99.90
41481;DHT22;27217;51.220;5.308;2023-02-20T06:58:14;7.30;99.90
41481;DHT22;27217;51.220;5.308;2023-02-20T07:00:40;7.20;99.90
41481;DHT22;27217;51.220;5.308;2023-02-20T07:03:06;7.20;99.90
41481;DHT22;27217;51.220;5.308;2023-02-20T07:05:32;7.30;99.90
41481;DHT22;27217;51.220;5.308;2023-02-20T07:07:58;7.30;99.90
41481;DHT22;27217;51.220;5.308;2023-02-20T07:10:23;7.30;99.90
41481;DHT22;27217;51.220;5.308;2023-02-20T07:12:52;7.30;99.90
41481;DHT22;27217;51.220;5.308;2023-02-20T07:15:18;7.40;99.90
41481;DHT22;27217;51.220;5.308;2023-02-20T07:17:45;7.30;99.90
41481;DHT22;27217;51.220;5.308;2023-02-20T07:20:11;7.50;99.90
41481;DHT22;27217;51.220;5.308;2023-02-20T07:22:37;7.30;99.90
41481;DHT22;27217;51.220;5.308;2023-02-20T07:25:03;7.30;99.90
41481;DHT22;27217;51.220;5.308;2023-02-20T07:27:29;7.20;99.90
41481;DHT22;27217;51.220;5.308;2023-02-20T07:29:55;7.20;99.90
41481;DHT22;27217;51.220;5.308;2023-02-20T07:32:20;7.30;99.90
41481;DHT22;27217;51.220;5.308;2023-02-20T07:34:48;7.60;99.90
41481;DHT22;27217;51.220;5.308;2023-02-20T07:37:14;7.60;99.90
41481;DHT22;27217;51.220;5.308;2023-02-20T07:39:40;7.50;99.90
41481;DHT22;27217;51.220;5.308;2023-02-20T07:42:06;7.20;99.90
41481;DHT22;27217;51.220;5.308;2023-02-20T07:44:33;7.30;99.90
41481;DHT22;27217;51.220;5.308;2023-02-20T07:47:00;7.30;99.90
41481;DHT22;27217;51.220;5.308;2023-02-20T07:49:26;7.40;99.90
41481;DHT22;27217;51.220;5.308;2023-02-20T07:51:52;7.30;99.90
41481;DHT22;27217;51.220;5.308;2023-02-20T07:54:18;7.20;99.90
41481;DHT22;27217;51.220;5.308;2023-02-20T07:56:44;7.40;99.90
41481;DHT22;27217;51.220;5.308;2023-02-20T07:59:10;7.40;99.90
41481;DHT22;27217;51.220;5.308;2023-02-20T08:01:37;7.40;99.90
41481;DHT22;27217;51.220;5.308;2023-02-20T08:04:03;7.30;99.90
41481;DHT22;27217;51.220;5.308;2023-02-20T08:06:29;7.40;99.90
41481;DHT22;27217;51.220;5.308;2023-02-20T08:08:55;7.60;99.90
41481;DHT22;27217;51.220;5.308;2023-02-20T08:11:22;7.50;99.90
41481;DHT22;27217;51.220;5.308;2023-02-20T08:13:51;7.50;99.90
41481;DHT22;27217;51.220;5.308;2023-02-20T08:16:20;7.50;99.90
41481;DHT22;27217;51.220;5.308;2023-02-20T08:18:47;7.60;99.90
41481;DHT22;27217;51.220;5.308;2023-02-20T08:21:12;7.50;99.90
41481;DHT22;27217;51.220;5.308;2023-02-20T08:23:38;7.40;99.90
41481;DHT22;27217;51.220;5.308;2023-02-20T08:26:06;7.60;99.90
41481;DHT22;27217;51.220;5.308;2023-02-20T08:28:31;7.50;99.90
41481;DHT22;27217;51.220;5.308;2023-02-20T08:30:57;7.60;99.90
41481;DHT22;27217;51.220;5.308;2023-02-20T08:33:26;7.70;99.90
41481;DHT22;27217;51.220;5.308;2023-02-20T08:35:51;8.00;99.90
41481;DHT22;27217;51.220;5.308;2023-02-20T08:38:27;8.10;99.90
41481;DHT22;27217;51.220;5.308;2023-02-20T08:40:54;7.90;99.90
41481;DHT22;27217;51.220;5.308;2023-02-20T08:43:23;7.80;99.90
41481;DHT22;27217;51.220;5.308;2023-02-20T08:45:50;7.90;99.90
41481;DHT22;27217;51.220;5.308;2023-02-20T08:48:19;7.90;99.90
41481;DHT22;27217;51.220;5.308;2023-02-20T08:50:46;7.90;99.90
41481;DHT22;27217;51.220;5.308;2023-02-20T08:53:13;7.70;99.90
41481;DHT22;27217;51.220;5.308;2023-02-20T08:55:42;7.80;99.90
41481;DHT22;27217;51.220;5.308;2023-02-20T08:58:08;7.70;99.90
41481;DHT22;27217;51.220;5.308;2023-02-20T09:00:34;7.80;99.90
41481;DHT22;27217;51.220;5.308;2023-02-20T09:03:00;7.90;99.90
41481;DHT22;27217;51.220;5.308;2023-02-20T09:05:26;8.10;99.90
41481;DHT22;27217;51.220;5.308;2023-02-20T09:07:52;8.10;99.90
41481;DHT22;27217;51.220;5.308;2023-02-20T09:10:19;8.10;99.90
41481;DHT22;27217;51.220;5.308;2023-02-20T09:12:45;8.10;99.90
41481;DHT22;27217;51.220;5.308;2023-02-20T09:15:11;8.10;99.90
41481;DHT22;27217;51.220;5.308;2023-02-20T09:17:38;8.10;99.90
41481;DHT22;27217;51.220;5.308;2023-02-20T09:20:04;8.20;99.90
41481;DHT22;27217;51.220;5.308;2023-02-20T09:22:34;8.10;99.90
41481;DHT22;27217;51.220;5.308;2023-02-20T09:25:00;8.20;99.90
41481;DHT22;27217;51.220;5.308;2023-02-20T09:27:26;8.20;99.90
41481;DHT22;27217;51.220;5.308;2023-02-20T09:29:51;8.20;99.90
41481;DHT22;27217;51.220;5.308;2023-02-20T09:32:17;8.10;99.90
41481;DHT22;27217;51.220;5.308;2023-02-20T09:34:43;8.10;99.90
41481;DHT22;27217;51.220;5.308;2023-02-20T09:37:10;8.30;99.90
41481;DHT22;27217;51.220;5.308;2023-02-20T09:39:35;8.40;99.90
41481;DHT22;27217;51.220;5.308;2023-02-20T09:45:08;8.30;99.90
41481;DHT22;27217;51.220;5.308;2023-02-20T09:48:27;8.20;99.90
41481;DHT22;27217;51.220;5.308;2023-02-20T09:51:02;8.30;99.90
41481;DHT22;27217;51.220;5.308;2023-02-20T09:53:46;8.30;99.90
41481;DHT22;27217;51.220;5.308;2023-02-20T09:56:36;8.30;99.90
41481;DHT22;27217;51.220;5.308;2023-02-20T09:59:27;8.40;99.90
41481;DHT22;27217;51.220;5.308;2023-02-20T10:02:13;8.30;99.90
41481;DHT22;27217;51.220;5.308;2023-02-20T10:04:43;8.20;99.90
41481;DHT22;27217;51.220;5.308;2023-02-20T10:07:32;8.30;99.90
41481;DHT22;27217;51.220;5.308;2023-02-20T10:09:59;8.40;99.90
41481;DHT22;27217;51.220;5.308;2023-02-20T10:12:55;8.50;99.90
41481;DHT22;27217;51.220;5.308;2023-02-20T10:15:33;8.60;99.90
41481;DHT22;27217;51.220;5.308;2023-02-20T10:23:49;8.50;99.90
41481;DHT22;27217;51.220;5.308;2023-02-20T10:26:22;8.60;99.90
41481;DHT22;27217;51.220;5.308;2023-02-20T10:28:50;8.60;99.90
41481;DHT22;27217;51.220;5.308;2023-02-20T10:31:38;8.60;99.90
41481;DHT22;27217;51.220;5.308;2023-02-20T10:34:11;8.40;99.90
41481;DHT22;27217;51.220;5.308;2023-02-20T10:36:41;8.50;99.90
41481;DHT22;27217;51.220;5.308;2023-02-20T10:39:17;8.50;99.90
41481;DHT22;27217;51.220;5.308;2023-02-20T10:42:04;8.50;99.90
41481;DHT22;27217;51.220;5.308;2023-02-20T10:44:49;8.50;99.90
41481;DHT22;27217;51.220;5.308;2023-02-20T10:47:33;8.60;99.90
41481;DHT22;27217;51.220;5.308;2023-02-20T10:50:28;8.40;99.90
41481;DHT22;27217;51.220;5.308;2023-02-20T10:53:18;8.30;99.90
41481;DHT22;27217;51.220;5.308;2023-02-20T11:01:14;8.50;99.90
41481;DHT22;27217;51.220;5.308;2023-02-20T11:04:10;8.60;99.90
41481;DHT22;27217;51.220;5.308;2023-02-20T11:07:06;8.50;99.90
41481;DHT22;27217;51.220;5.308;2023-02-20T11:09:33;8.40;99.90
41481;DHT22;27217;51.220;5.308;2023-02-20T11:12:00;8.40;99.90
41481;DHT22;27217;51.220;5.308;2023-02-20T11:14:41;8.40;99.90
41481;DHT22;27217;51.220;5.308;2023-02-20T11:17:12;8.40;99.90
41481;DHT22;27217;51.220;5.308;2023-02-20T11:19:57;8.50;99.90
41481;DHT22;27217;51.220;5.308;2023-02-20T11:22:41;8.60;99.90
41481;DHT22;27217;51.220;5.308;2023-02-20T11:27:49;8.70;99.90
41481;DHT22;27217;51.220;5.308;2023-02-20T11:30:31;8.60;99.90
41481;DHT22;27217;51.220;5.308;2023-02-20T11:33:41;8.80;99.90
41481;DHT22;27217;51.220;5.308;2023-02-20T11:35:56;8.70;99.90
41481;DHT22;27217;51.220;5.308;2023-02-20T11:38:28;8.70;99.90
41481;DHT22;27217;51.220;5.308;2023-02-20T11:43:28;8.60;99.90
41481;DHT22;27217;51.220;5.308;2023-02-20T11:46:18;8.50;99.90
41481;DHT22;27217;51.220;5.308;2023-02-20T11:54:09;8.70;99.90
41481;DHT22;27217;51.220;5.308;2023-02-20T11:57:02;8.60;99.90
41481;DHT22;27217;51.220;5.308;2023-02-20T12:05:11;8.70;99.90
41481;DHT22;27217;51.220;5.308;2023-02-20T12:07:39;8.80;99.90
41481;DHT22;27217;51.220;5.308;2023-02-20T12:12:41;8.70;99.90
41481;DHT22;27217;51.220;5.308;2023-02-20T12:15:17;8.70;99.90
41481;DHT22;27217;51.220;5.308;2023-02-20T12:20:47;8.70;99.90
41481;DHT22;27217;51.220;5.308;2023-02-20T12:26:31;8.70;99.90
41481;DHT22;27217;51.220;5.308;2023-02-20T12:34:52;8.90;99.90
41481;DHT22;27217;51.220;5.308;2023-02-20T12:48:12;8.90;99.90
41481;DHT22;27217;51.220;5.308;2023-02-20T12:51:01;9.10;99.90
41481;DHT22;27217;51.220;5.308;2023-02-20T13:02:24;8.90;99.90
41481;DHT22;27217;51.220;5.308;2023-02-20T13:04:56;8.90;99.90
41481;DHT22;27217;51.220;5.308;2023-02-20T13:07:52;9.00;99.90
41481;DHT22;27217;51.220;5.308;2023-02-20T13:10:25;9.20;99.90
41481;DHT22;27217;51.220;5.308;2023-02-20T13:12:52;9.00;99.90
41481;DHT22;27217;51.220;5.308;2023-02-20T13:15:32;9.10;99.90
41481;DHT22;27217;51.220;5.308;2023-02-20T13:21:12;9.30;99.90
41481;DHT22;27217;51.220;5.308;2023-02-20T13:23:39;9.20;99.90
41481;DHT22;27217;51.220;5.308;2023-02-20T13:29:20;9.20;99.90
41481;DHT22;27217;51.220;5.308;2023-02-20T13:31:54;9.30;99.90
41481;DHT22;27217;51.220;5.308;2023-02-20T13:36:48;9.20;99.90
41481;DHT22;27217;51.220;5.308;2023-02-20T13:46:58;9.10;99.90
41481;DHT22;27217;51.220;5.308;2023-02-20T13:55:15;9.30;99.90
41481;DHT22;27217;51.220;5.308;2023-02-20T14:02:50;9.30;99.90
41481;DHT22;27217;51.220;5.308;2023-02-20T14:05:26;9.40;99.90
41481;DHT22;27217;51.220;5.308;2023-02-20T14:07:52;9.30;99.90
41481;DHT22;27217;51.220;5.308;2023-02-20T14:10:30;9.40;99.90
41481;DHT22;27217;51.220;5.308;2023-02-20T14:15:56;9.50;99.90
41481;DHT22;27217;51.220;5.308;2023-02-20T14:18:30;9.50;99.90
41481;DHT22;27217;51.220;5.308;2023-02-20T14:21:14;9.60;99.90
41481;DHT22;27217;51.220;5.308;2023-02-20T14:23:41;9.60;99.90
41481;DHT22;27217;51.220;5.308;2023-02-20T14:26:22;9.50;99.90
41481;DHT22;27217;51.220;5.308;2023-02-20T14:28:52;9.20;99.90
41481;DHT22;27217;51.220;5.308;2023-02-20T14:31:34;9.30;99.90
41481;DHT22;27217;51.220;5.308;2023-02-20T14:34:08;9.20;99.90
41481;DHT22;27217;51.220;5.308;2023-02-20T14:36:58;9.20;99.90
41481;DHT22;27217;51.220;5.308;2023-02-20T14:42:15;9.40;99.90
41481;DHT22;27217;51.220;5.308;2023-02-20T14:44:42;9.40;99.90
41481;DHT22;27217;51.220;5.308;2023-02-20T14:47:14;9.20;99.90
41481;DHT22;27217;51.220;5.308;2023-02-20T14:49:41;9.30;99.90
41481;DHT22;27217;51.220;5.308;2023-02-20T14:52:21;9.30;99.90
41481;DHT22;27217;51.220;5.308;2023-02-20T14:55:01;9.40;99.90
41481;DHT22;27217;51.220;5.308;2023-02-20T14:57:29;9.30;99.90
41481;DHT22;27217;51.220;5.308;2023-02-20T15:00:29;9.40;99.90
41481;DHT22;27217;51.220;5.308;2023-02-20T15:02:56;9.60;99.90
41481;DHT22;27217;51.220;5.308;2023-02-20T15:05:31;9.40;99.90
41481;DHT22;27217;51.220;5.308;2023-02-20T15:08:22;9.60;99.90
41481;DHT22;27217;51.220;5.308;2023-02-20T15:10:56;9.60;99.90
41481;DHT22;27217;51.220;5.308;2023-02-20T15:13:25;9.40;99.90
41481;DHT22;27217;51.220;5.308;2023-02-20T15:16:11;9.40;99.90
41481;DHT22;27217;51.220;5.308;2023-02-20T15:18:45;9.30;99.90
41481;DHT22;27217;51.220;5.308;2023-02-20T15:21:11;9.40;99.90
41481;DHT22;27217;51.220;5.308;2023-02-20T15:23:45;9.30;99.90
41481;DHT22;27217;51.220;5.308;2023-02-20T15:26:33;9.30;99.90
41481;DHT22;27217;51.220;5.308;2023-02-20T15:29:18;9.40;99.90
41481;DHT22;27217;51.220;5.308;2023-02-20T15:31:45;9.50;99.90
41481;DHT22;27217;51.220;5.308;2023-02-20T15:34:22;9.40;99.90
41481;DHT22;27217;51.220;5.308;2023-02-20T15:36:49;9.30;99.90
41481;DHT22;27217;51.220;5.308;2023-02-20T15:39:16;9.30;99.90
41481;DHT22;27217;51.220;5.308;2023-02-20T15:41:43;9.30;99.90
41481;DHT22;27217;51.220;5.308;2023-02-20T15:44:09;9.30;99.90
41481;DHT22;27217;51.220;5.308;2023-02-20T15:46:36;9.30;99.90
41481;DHT22;27217;51.220;5.308;2023-02-20T15:49:03;9.20;99.90
41481;DHT22;27217;51.220;5.308;2023-02-20T15:51:30;9.40;99.90
41481;DHT22;27217;51.220;5.308;2023-02-20T15:53:58;9.30;99.90
41481;DHT22;27217;51.220;5.308;2023-02-20T15:56:28;9.40;99.90
41481;DHT22;27217;51.220;5.308;2023-02-20T15:58:55;9.20;99.90
41481;DHT22;27217;51.220;5.308;2023-02-20T16:01:24;9.30;99.90
41481;DHT22;27217;51.220;5.308;2023-02-20T16:03:50;9.30;99.90
41481;DHT22;27217;51.220;5.308;2023-02-20T16:06:16;9.30;99.90
41481;DHT22;27217;51.220;5.308;2023-02-20T16:08:44;9.30;99.90
41481;DHT22;27217;51.220;5.308;2023-02-20T16:11:11;9.30;99.90
41481;DHT22;27217;51.220;5.308;2023-02-20T16:13:39;9.30;99.90
41481;DHT22;27217;51.220;5.308;2023-02-20T16:16:35;9.20;99.90
41481;DHT22;27217;51.220;5.308;2023-02-20T16:19:03;9.20;99.90
41481;DHT22;27217;51.220;5.308;2023-02-20T16:21:34;9.40;99.90
41481;DHT22;27217;51.220;5.308;2023-02-20T16:24:00;9.50;99.90
41481;DHT22;27217;51.220;5.308;2023-02-20T16:26:27;9.40;99.90
41481;DHT22;27217;51.220;5.308;2023-02-20T16:29:05;9.30;99.90
41481;DHT22;27217;51.220;5.308;2023-02-20T16:34:27;9.30;99.90
41481;DHT22;27217;51.220;5.308;2023-02-20T16:36:53;9.40;99.90
41481;DHT22;27217;51.220;5.308;2023-02-20T16:39:19;9.30;99.90
41481;DHT22;27217;51.220;5.308;2023-02-20T16:41:45;9.60;99.90
41481;DHT22;27217;51.220;5.308;2023-02-20T16:44:23;9.50;99.90
41481;DHT22;27217;51.220;5.308;2023-02-20T16:46:52;9.40;99.90
41481;DHT22;27217;51.220;5.308;2023-02-20T16:49:18;9.40;99.90
41481;DHT22;27217;51.220;5.308;2023-02-20T16:51:44;9.30;99.90
41481;DHT22;27217;51.220;5.308;2023-02-20T16:54:17;9.30;99.90
41481;DHT22;27217;51.220;5.308;2023-02-20T16:56:42;9.30;99.90
41481;DHT22;27217;51.220;5.308;2023-02-20T16:59:09;9.50;99.90
41481;DHT22;27217;51.220;5.308;2023-02-20T17:01:35;9.30;99.90
41481;DHT22;27217;51.220;5.308;2023-02-20T17:04:01;9.20;99.90
41481;DHT22;27217;51.220;5.308;2023-02-20T17:06:29;9.30;99.90
41481;DHT22;27217;51.220;5.308;2023-02-20T17:08:56;9.20;99.90
41481;DHT22;27217;51.220;5.308;2023-02-20T17:11:22;9.30;99.90
41481;DHT22;27217;51.220;5.308;2023-02-20T17:13:49;9.50;99.90
41481;DHT22;27217;51.220;5.308;2023-02-20T17:16:14;9.50;99.90
41481;DHT22;27217;51.220;5.308;2023-02-20T17:18:41;9.30;99.90
41481;DHT22;27217;51.220;5.308;2023-02-20T17:21:08;9.30;99.90
41481;DHT22;27217;51.220;5.308;2023-02-20T17:23:34;9.60;99.90
41481;DHT22;27217;51.220;5.308;2023-02-20T17:26:00;9.70;99.90
41481;DHT22;27217;51.220;5.308;2023-02-20T17:28:25;9.30;99.90
41481;DHT22;27217;51.220;5.308;2023-02-20T17:30:51;9.30;99.90
41481;DHT22;27217;51.220;5.308;2023-02-20T17:33:19;9.30;99.90
41481;DHT22;27217;51.220;5.308;2023-02-20T17:35:45;9.50;99.90
41481;DHT22;27217;51.220;5.308;2023-02-20T17:38:11;9.20;99.90
41481;DHT22;27217;51.220;5.308;2023-02-20T17:40:38;9.30;99.90
41481;DHT22;27217;51.220;5.308;2023-02-20T17:43:04;9.40;99.90
41481;DHT22;27217;51.220;5.308;2023-02-20T17:45:30;9.40;99.90
41481;DHT22;27217;51.220;5.308;2023-02-20T17:47:56;9.20;99.90
41481;DHT22;27217;51.220;5.308;2023-02-20T17:50:22;9.30;99.90
41481;DHT22;27217;51.220;5.308;2023-02-20T17:52:52;9.30;99.90
41481;DHT22;27217;51.220;5.308;2023-02-20T17:55:25;9.30;99.90
41481;DHT22;27217;51.220;5.308;2023-02-20T17:57:52;9.30;99.90
41481;DHT22;27217;51.220;5.308;2023-02-20T18:00:18;9.60;99.90
41481;DHT22;27217;51.220;5.308;2023-02-20T18:02:45;9.60;99.90
41481;DHT22;27217;51.220;5.308;2023-02-20T18:05:11;9.40;99.90
41481;DHT22;27217;51.220;5.308;2023-02-20T18:07:37;9.50;99.90
41481;DHT22;27217;51.220;5.308;2023-02-20T18:10:03;9.40;99.90
41481;DHT22;27217;51.220;5.308;2023-02-20T18:12:30;9.30;99.90
41481;DHT22;27217;51.220;5.308;2023-02-20T18:14:56;9.40;99.90
41481;DHT22;27217;51.220;5.308;2023-02-20T18:17:25;9.40;99.90
41481;DHT22;27217;51.220;5.308;2023-02-20T18:19:51;9.30;99.90